sensor_id;sensor_type;location;lat;lon;timestamp;P1;durP1;ratioP1;P2;durP2;ratioP2
40373;SDS011;26079;45.958;12.492;2024-01-11T00:00:22;38.33;;;24.00;;
40373;SDS011;26079;45.958;12.492;2024-01-11T00:02:50;34.33;;;23.25;;
40373;SDS011;26079;45.958;12.492;2024-01-11T00:05:16;36.08;;;23.50;;
40373;SDS011;26079;45.958;12.492;2024-01-11T00:07:41;34.42;;;23.70;;
40373;SDS011;26079;45.958;12.492;2024-01-11T00:10:07;34.42;;;24.58;;
40373;SDS011;26079;45.958;12.492;2024-01-11T00:12:33;34.95;;;25.60;;
40373;SDS011;26079;45.958;12.492;2024-01-11T00:14:59;32.55;;;24.63;;
40373;SDS011;26079;45.958;12.492;2024-01-11T00:17:25;34.97;;;23.83;;
40373;SDS011;26079;45.958;12.492;2024-01-11T00:19:50;36.70;;;23.67;;
40373;SDS011;26079;45.958;12.492;2024-01-11T00:22:17;34.38;;;25.77;;
40373;SDS011;26079;45.958;12.492;2024-01-11T00:24:42;37.95;;;27.45;;
40373;SDS011;26079;45.958;12.492;2024-01-11T00:27:08;45.50;;;31.42;;
40373;SDS011;26079;45.958;12.492;2024-01-11T00:29:35;49.20;;;30.48;;
40373;SDS011;26079;45.958;12.492;2024-01-11T00:32:01;45.60;;;33.08;;
40373;SDS011;26079;45.958;12.492;2024-01-11T00:34:26;43.20;;;29.58;;
40373;SDS011;26079;45.958;12.492;2024-01-11T00:36:52;52.30;;;29.92;;
40373;SDS011;26079;45.958;12.492;2024-01-11T00:39:18;43.17;;;30.38;;
40373;SDS011;26079;45.958;12.492;2024-01-11T00:41:43;56.35;;;32.80;;
40373;SDS011;26079;45.958;12.492;2024-01-11T00:44:09;49.72;;;32.25;;
40373;SDS011;26079;45.958;12.492;2024-01-11T00:46:35;51.88;;;30.00;;
40373;SDS011;26079;45.958;12.492;2024-01-11T00:49:01;46.75;;;29.58;;
40373;SDS011;26079;45.958;12.492;2024-01-11T00:51:27;50.75;;;32.15;;
40373;SDS011;26079;45.958;12.492;2024-01-11T00:53:53;40.03;;;28.33;;
40373;SDS011;26079;45.958;12.492;2024-01-11T00:56:18;42.13;;;27.23;;
40373;SDS011;26079;45.958;12.492;2024-01-11T00:58:44;31.73;;;23.45;;
40373;SDS011;26079;45.958;12.492;2024-01-11T01:01:11;33.75;;;22.35;;
40373;SDS011;26079;45.958;12.492;2024-01-11T01:03:37;37.50;;;24.55;;
40373;SDS011;26079;45.958;12.492;2024-01-11T01:06:03;39.30;;;25.55;;
40373;SDS011;26079;45.958;12.492;2024-01-11T01:08:29;37.83;;;24.85;;
40373;SDS011;26079;45.958;12.492;2024-01-11T01:10:55;32.03;;;24.73;;
40373;SDS011;26079;45.958;12.492;2024-01-11T01:13:21;29.33;;;21.67;;
40373;SDS011;26079;45.958;12.492;2024-01-11T01:15:47;37.38;;;22.80;;
40373;SDS011;26079;45.958;12.492;2024-01-11T01:18:12;31.60;;;23.65;;
40373;SDS011;26079;45.958;12.492;2024-01-11T01:20:38;37.47;;;24.23;;
40373;SDS011;26079;45.958;12.492;2024-01-11T01:23:04;31.20;;;22.77;;
40373;SDS011;26079;45.958;12.492;2024-01-11T01:25:29;30.73;;;23.50;;
40373;SDS011;26079;45.958;12.492;2024-01-11T01:27:55;34.08;;;22.55;;
40373;SDS011;26079;45.958;12.492;2024-01-11T01:30:21;32.70;;;22.50;;
40373;SDS011;26079;45.958;12.492;2024-01-11T01:32:48;30.42;;;22.00;;
40373;SDS011;26079;45.958;12.492;2024-01-11T01:35:14;30.95;;;22.05;;
40373;SDS011;26079;45.958;12.492;2024-01-11T01:37:39;32.85;;;20.77;;
40373;SDS011;26079;45.958;12.492;2024-01-11T01:40:05;31.42;;;22.35;;
40373;SDS011;26079;45.958;12.492;2024-01-11T01:42:32;27.42;;;19.85;;
40373;SDS011;26079;45.958;12.492;2024-01-11T01:44:58;31.35;;;20.63;;
40373;SDS011;26079;45.958;12.492;2024-01-11T01:47:24;28.15;;;20.27;;
40373;SDS011;26079;45.958;12.492;2024-01-11T01:49:54;31.90;;;21.35;;
40373;SDS011;26079;45.958;12.492;2024-01-11T01:52:20;30.60;;;21.95;;
40373;SDS011;26079;45.958;12.492;2024-01-11T01:54:47;31.65;;;21.60;;
40373;SDS011;26079;45.958;12.492;2024-01-11T01:57:14;28.35;;;20.75;;
40373;SDS011;26079;45.958;12.492;2024-01-11T01:59:41;31.40;;;19.23;;
40373;SDS011;26079;45.958;12.492;2024-01-11T02:02:08;33.42;;;20.52;;
40373;SDS011;26079;45.958;12.492;2024-01-11T02:04:35;26.60;;;19.10;;
40373;SDS011;26079;45.958;12.492;2024-01-11T02:07:01;25.00;;;18.23;;
40373;SDS011;26079;45.958;12.492;2024-01-11T02:09:28;22.15;;;17.67;;
40373;SDS011;26079;45.958;12.492;2024-01-11T02:11:54;23.80;;;18.35;;
40373;SDS011;26079;45.958;12.492;2024-01-11T02:14:19;29.25;;;21.10;;
40373;SDS011;26079;45.958;12.492;2024-01-11T02:16:45;26.48;;;19.27;;
40373;SDS011;26079;45.958;12.492;2024-01-11T02:19:12;25.63;;;18.52;;
40373;SDS011;26079;45.958;12.492;2024-01-11T02:21:42;23.30;;;18.33;;
40373;SDS011;26079;45.958;12.492;2024-01-11T02:24:08;22.40;;;17.90;;
40373;SDS011;26079;45.958;12.492;2024-01-11T02:26:35;27.98;;;19.48;;
40373;SDS011;26079;45.958;12.492;2024-01-11T02:29:01;26.00;;;19.45;;
40373;SDS011;26079;45.958;12.492;2024-01-11T02:31:26;26.48;;;20.50;;
40373;SDS011;26079;45.958;12.492;2024-01-11T02:33:53;24.02;;;17.83;;
40373;SDS011;26079;45.958;12.492;2024-01-11T02:36:22;24.40;;;19.15;;
40373;SDS011;26079;45.958;12.492;2024-01-11T02:38:50;27.70;;;18.98;;
40373;SDS011;26079;45.958;12.492;2024-01-11T02:41:17;27.88;;;19.42;;
40373;SDS011;26079;45.958;12.492;2024-01-11T02:43:47;25.98;;;20.08;;
40373;SDS011;26079;45.958;12.492;2024-01-11T02:46:14;24.67;;;17.55;;
40373;SDS011;26079;45.958;12.492;2024-01-11T02:48:40;28.23;;;18.48;;
40373;SDS011;26079;45.958;12.492;2024-01-11T02:51:06;26.55;;;19.38;;
40373;SDS011;26079;45.958;12.492;2024-01-11T02:53:32;28.77;;;20.10;;
40373;SDS011;26079;45.958;12.492;2024-01-11T02:55:59;29.73;;;20.55;;
40373;SDS011;26079;45.958;12.492;2024-01-11T02:58:26;31.38;;;19.33;;
40373;SDS011;26079;45.958;12.492;2024-01-11T03:00:51;30.73;;;19.33;;
40373;SDS011;26079;45.958;12.492;2024-01-11T03:03:17;26.48;;;18.77;;
40373;SDS011;26079;45.958;12.492;2024-01-11T03:05:43;22.52;;;17.88;;
40373;SDS011;26079;45.958;12.492;2024-01-11T03:08:08;20.90;;;15.82;;
40373;SDS011;26079;45.958;12.492;2024-01-11T03:10:36;21.65;;;16.55;;
40373;SDS011;26079;45.958;12.492;2024-01-11T03:13:03;24.80;;;16.45;;
40373;SDS011;26079;45.958;12.492;2024-01-11T03:15:30;23.52;;;17.45;;
40373;SDS011;26079;45.958;12.492;2024-01-11T03:17:55;26.90;;;18.52;;
40373;SDS011;26079;45.958;12.492;2024-01-11T03:20:21;25.13;;;17.23;;
40373;SDS011;26079;45.958;12.492;2024-01-11T03:22:50;24.50;;;18.05;;
40373;SDS011;26079;45.958;12.492;2024-01-11T03:25:19;24.90;;;16.50;;
40373;SDS011;26079;45.958;12.492;2024-01-11T03:27:45;27.73;;;18.15;;
40373;SDS011;26079;45.958;12.492;2024-01-11T03:30:11;25.48;;;17.23;;
40373;SDS011;26079;45.958;12.492;2024-01-11T03:32:37;20.88;;;16.70;;
40373;SDS011;26079;45.958;12.492;2024-01-11T03:35:06;27.10;;;17.63;;
40373;SDS011;26079;45.958;12.492;2024-01-11T03:37:32;23.77;;;16.60;;
40373;SDS011;26079;45.958;12.492;2024-01-11T03:39:58;21.63;;;15.32;;
40373;SDS011;26079;45.958;12.492;2024-01-11T03:42:25;21.83;;;16.33;;
40373;SDS011;26079;45.958;12.492;2024-01-11T03:44:51;23.92;;;15.85;;
40373;SDS011;26079;45.958;12.492;2024-01-11T03:47:16;18.98;;;15.88;;
40373;SDS011;26079;45.958;12.492;2024-01-11T03:49:42;21.70;;;14.88;;
40373;SDS011;26079;45.958;12.492;2024-01-11T03:52:08;21.67;;;15.63;;
40373;SDS011;26079;45.958;12.492;2024-01-11T03:54:33;20.40;;;16.58;;
40373;SDS011;26079;45.958;12.492;2024-01-11T03:56:59;19.63;;;14.23;;
40373;SDS011;26079;45.958;12.492;2024-01-11T03:59:25;20.23;;;14.82;;
40373;SDS011;26079;45.958;12.492;2024-01-11T04:01:50;22.23;;;15.57;;
40373;SDS011;26079;45.958;12.492;2024-01-11T04:04:17;23.98;;;14.65;;
40373;SDS011;26079;45.958;12.492;2024-01-11T04:06:43;24.67;;;16.08;;
40373;SDS011;26079;45.958;12.492;2024-01-11T04:09:09;38.00;;;19.67;;
40373;SDS011;26079;45.958;12.492;2024-01-11T04:11:35;23.63;;;15.82;;
40373;SDS011;26079;45.958;12.492;2024-01-11T04:14:01;27.75;;;15.43;;
40373;SDS011;26079;45.958;12.492;2024-01-11T04:16:27;19.92;;;14.10;;
40373;SDS011;26079;45.958;12.492;2024-01-11T04:18:53;20.52;;;14.90;;
40373;SDS011;26079;45.958;12.492;2024-01-11T04:21:25;21.23;;;14.05;;
40373;SDS011;26079;45.958;12.492;2024-01-11T04:23:54;21.15;;;13.70;;
40373;SDS011;26079;45.958;12.492;2024-01-11T04:26:20;17.83;;;13.05;;
40373;SDS011;26079;45.958;12.492;2024-01-11T04:28:46;30.02;;;15.05;;
40373;SDS011;26079;45.958;12.492;2024-01-11T04:31:13;18.35;;;12.77;;
40373;SDS011;26079;45.958;12.492;2024-01-11T04:33:40;18.05;;;13.48;;
40373;SDS011;26079;45.958;12.492;2024-01-11T04:36:07;17.33;;;12.40;;
40373;SDS011;26079;45.958;12.492;2024-01-11T04:38:37;22.13;;;14.00;;
40373;SDS011;26079;45.958;12.492;2024-01-11T04:41:07;26.55;;;13.23;;
40373;SDS011;26079;45.958;12.492;2024-01-11T04:43:35;16.02;;;12.25;;
40373;SDS011;26079;45.958;12.492;2024-01-11T04:48:39;26.38;;;12.93;;
40373;SDS011;26079;45.958;12.492;2024-01-11T04:51:05;20.42;;;12.27;;
40373;SDS011;26079;45.958;12.492;2024-01-11T04:53:31;17.95;;;12.75;;
40373;SDS011;26079;45.958;12.492;2024-01-11T04:55:57;20.02;;;13.60;;
40373;SDS011;26079;45.958;12.492;2024-01-11T04:58:23;25.25;;;13.07;;
40373;SDS011;26079;45.958;12.492;2024-01-11T05:00:48;22.25;;;14.40;;
40373;SDS011;26079;45.958;12.492;2024-01-11T05:03:14;20.75;;;12.65;;
40373;SDS011;26079;45.958;12.492;2024-01-11T05:05:40;17.45;;;11.90;;
40373;SDS011;26079;45.958;12.492;2024-01-11T05:08:06;16.80;;;12.70;;
40373;SDS011;26079;45.958;12.492;2024-01-11T05:10:31;19.30;;;12.27;;
40373;SDS011;26079;45.958;12.492;2024-01-11T05:12:57;16.63;;;12.52;;
40373;SDS011;26079;45.958;12.492;2024-01-11T05:15:23;15.77;;;11.43;;
40373;SDS011;26079;45.958;12.492;2024-01-11T05:17:49;18.70;;;12.82;;
40373;SDS011;26079;45.958;12.492;2024-01-11T05:20:16;16.15;;;11.25;;
40373;SDS011;26079;45.958;12.492;2024-01-11T05:22:41;17.15;;;12.48;;
40373;SDS011;26079;45.958;12.492;2024-01-11T05:25:07;15.40;;;11.88;;
40373;SDS011;26079;45.958;12.492;2024-01-11T05:27:33;17.50;;;12.25;;
40373;SDS011;26079;45.958;12.492;2024-01-11T05:29:58;18.38;;;13.13;;
40373;SDS011;26079;45.958;12.492;2024-01-11T05:32:24;15.60;;;10.68;;
40373;SDS011;26079;45.958;12.492;2024-01-11T05:34:50;14.52;;;11.98;;
40373;SDS011;26079;45.958;12.492;2024-01-11T05:37:16;19.13;;;11.70;;
40373;SDS011;26079;45.958;12.492;2024-01-11T05:39:41;16.80;;;12.35;;
40373;SDS011;26079;45.958;12.492;2024-01-11T05:42:07;13.43;;;11.25;;
40373;SDS011;26079;45.958;12.492;2024-01-11T05:44:33;15.57;;;11.93;;
40373;SDS011;26079;45.958;12.492;2024-01-11T05:46:58;24.63;;;16.63;;
40373;SDS011;26079;45.958;12.492;2024-01-11T05:49:24;21.13;;;16.90;;
40373;SDS011;26079;45.958;12.492;2024-01-11T05:51:51;23.05;;;16.23;;
40373;SDS011;26079;45.958;12.492;2024-01-11T05:54:17;19.05;;;15.13;;
40373;SDS011;26079;45.958;12.492;2024-01-11T05:56:42;19.50;;;14.95;;
40373;SDS011;26079;45.958;12.492;2024-01-11T05:59:08;17.30;;;14.45;;
40373;SDS011;26079;45.958;12.492;2024-01-11T06:01:39;18.77;;;14.75;;
40373;SDS011;26079;45.958;12.492;2024-01-11T06:04:06;16.60;;;13.00;;
40373;SDS011;26079;45.958;12.492;2024-01-11T06:06:32;18.83;;;13.82;;
40373;SDS011;26079;45.958;12.492;2024-01-11T06:08:57;17.48;;;13.95;;
40373;SDS011;26079;45.958;12.492;2024-01-11T06:11:23;24.00;;;14.18;;
40373;SDS011;26079;45.958;12.492;2024-01-11T06:13:48;16.10;;;11.27;;
40373;SDS011;26079;45.958;12.492;2024-01-11T06:16:14;19.92;;;12.70;;
40373;SDS011;26079;45.958;12.492;2024-01-11T06:18:40;17.70;;;11.95;;
40373;SDS011;26079;45.958;12.492;2024-01-11T06:21:05;24.83;;;14.50;;
40373;SDS011;26079;45.958;12.492;2024-01-11T06:23:31;24.30;;;18.67;;
40373;SDS011;26079;45.958;12.492;2024-01-11T06:25:57;27.95;;;18.48;;
40373;SDS011;26079;45.958;12.492;2024-01-11T06:28:22;30.35;;;17.55;;
40373;SDS011;26079;45.958;12.492;2024-01-11T06:30:48;22.27;;;16.77;;
40373;SDS011;26079;45.958;12.492;2024-01-11T06:33:14;31.77;;;18.77;;
40373;SDS011;26079;45.958;12.492;2024-01-11T06:35:39;27.05;;;18.05;;
40373;SDS011;26079;45.958;12.492;2024-01-11T06:38:05;23.85;;;17.85;;
40373;SDS011;26079;45.958;12.492;2024-01-11T06:40:31;19.27;;;14.18;;
40373;SDS011;26079;45.958;12.492;2024-01-11T06:42:56;21.08;;;14.65;;
40373;SDS011;26079;45.958;12.492;2024-01-11T06:45:22;20.88;;;13.77;;
40373;SDS011;26079;45.958;12.492;2024-01-11T06:47:48;17.13;;;11.40;;
40373;SDS011;26079;45.958;12.492;2024-01-11T06:50:14;17.52;;;13.00;;
40373;SDS011;26079;45.958;12.492;2024-01-11T06:52:40;18.60;;;14.40;;
40373;SDS011;26079;45.958;12.492;2024-01-11T06:55:05;18.67;;;13.50;;
40373;SDS011;26079;45.958;12.492;2024-01-11T06:57:32;28.20;;;14.38;;
40373;SDS011;26079;45.958;12.492;2024-01-11T06:59:58;29.42;;;13.90;;
40373;SDS011;26079;45.958;12.492;2024-01-11T07:02:24;22.98;;;13.48;;
40373;SDS011;26079;45.958;12.492;2024-01-11T07:04:50;18.85;;;12.73;;
40373;SDS011;26079;45.958;12.492;2024-01-11T07:07:16;18.33;;;12.23;;
40373;SDS011;26079;45.958;12.492;2024-01-11T07:09:42;18.40;;;12.80;;
40373;SDS011;26079;45.958;12.492;2024-01-11T07:12:07;15.02;;;12.23;;
40373;SDS011;26079;45.958;12.492;2024-01-11T07:14:34;18.65;;;13.20;;
40373;SDS011;26079;45.958;12.492;2024-01-11T07:17:00;18.73;;;13.57;;
40373;SDS011;26079;45.958;12.492;2024-01-11T07:19:26;17.85;;;13.65;;
40373;SDS011;26079;45.958;12.492;2024-01-11T07:21:52;16.02;;;13.32;;
40373;SDS011;26079;45.958;12.492;2024-01-11T07:24:17;18.95;;;14.35;;
40373;SDS011;26079;45.958;12.492;2024-01-11T07:26:43;22.55;;;16.27;;
40373;SDS011;26079;45.958;12.492;2024-01-11T07:29:09;19.15;;;15.10;;
40373;SDS011;26079;45.958;12.492;2024-01-11T07:31:35;23.85;;;16.67;;
40373;SDS011;26079;45.958;12.492;2024-01-11T07:34:00;21.20;;;16.33;;
40373;SDS011;26079;45.958;12.492;2024-01-11T07:36:26;27.15;;;18.60;;
40373;SDS011;26079;45.958;12.492;2024-01-11T07:38:52;34.83;;;24.42;;
40373;SDS011;26079;45.958;12.492;2024-01-11T07:41:18;31.40;;;23.60;;
40373;SDS011;26079;45.958;12.492;2024-01-11T07:43:46;42.85;;;28.50;;
40373;SDS011;26079;45.958;12.492;2024-01-11T07:46:12;44.85;;;30.08;;
40373;SDS011;26079;45.958;12.492;2024-01-11T07:48:37;55.40;;;34.72;;
40373;SDS011;26079;45.958;12.492;2024-01-11T07:51:03;57.78;;;36.40;;
40373;SDS011;26079;45.958;12.492;2024-01-11T07:53:29;62.25;;;42.20;;
40373;SDS011;26079;45.958;12.492;2024-01-11T07:55:57;60.00;;;45.45;;
40373;SDS011;26079;45.958;12.492;2024-01-11T07:58:23;59.80;;;47.58;;
40373;SDS011;26079;45.958;12.492;2024-01-11T08:00:49;48.63;;;42.17;;
40373;SDS011;26079;45.958;12.492;2024-01-11T08:03:14;53.95;;;41.28;;
40373;SDS011;26079;45.958;12.492;2024-01-11T08:05:40;33.75;;;24.00;;
40373;SDS011;26079;45.958;12.492;2024-01-11T08:08:08;37.85;;;29.55;;
40373;SDS011;26079;45.958;12.492;2024-01-11T08:10:33;37.25;;;29.48;;
40373;SDS011;26079;45.958;12.492;2024-01-11T08:12:59;32.42;;;26.30;;
40373;SDS011;26079;45.958;12.492;2024-01-11T08:15:25;31.80;;;23.80;;
40373;SDS011;26079;45.958;12.492;2024-01-11T08:17:51;33.67;;;27.00;;
40373;SDS011;26079;45.958;12.492;2024-01-11T08:20:18;34.17;;;25.73;;
40373;SDS011;26079;45.958;12.492;2024-01-11T08:22:44;33.88;;;24.33;;
40373;SDS011;26079;45.958;12.492;2024-01-11T08:25:11;37.08;;;25.88;;
40373;SDS011;26079;45.958;12.492;2024-01-11T08:27:38;36.75;;;28.90;;
40373;SDS011;26079;45.958;12.492;2024-01-11T08:30:04;36.55;;;28.88;;
40373;SDS011;26079;45.958;12.492;2024-01-11T08:32:30;44.38;;;33.50;;
40373;SDS011;26079;45.958;12.492;2024-01-11T08:34:56;52.10;;;33.30;;
40373;SDS011;26079;45.958;12.492;2024-01-11T08:37:22;49.78;;;31.98;;
40373;SDS011;26079;45.958;12.492;2024-01-11T08:39:48;44.58;;;33.05;;
40373;SDS011;26079;45.958;12.492;2024-01-11T08:42:15;41.03;;;32.40;;
40373;SDS011;26079;45.958;12.492;2024-01-11T08:44:44;33.38;;;27.27;;
40373;SDS011;26079;45.958;12.492;2024-01-11T08:47:10;38.47;;;28.42;;
40373;SDS011;26079;45.958;12.492;2024-01-11T08:49:38;35.25;;;25.52;;
40373;SDS011;26079;45.958;12.492;2024-01-11T08:52:05;37.42;;;24.30;;
40373;SDS011;26079;45.958;12.492;2024-01-11T08:54:31;40.83;;;23.95;;
40373;SDS011;26079;45.958;12.492;2024-01-11T08:57:00;33.42;;;22.90;;
40373;SDS011;26079;45.958;12.492;2024-01-11T08:59:26;27.25;;;22.02;;
40373;SDS011;26079;45.958;12.492;2024-01-11T09:01:52;25.80;;;21.75;;
40373;SDS011;26079;45.958;12.492;2024-01-11T09:04:18;22.00;;;17.73;;
40373;SDS011;26079;45.958;12.492;2024-01-11T09:06:44;27.45;;;19.15;;
40373;SDS011;26079;45.958;12.492;2024-01-11T09:09:10;23.88;;;17.58;;
40373;SDS011;26079;45.958;12.492;2024-01-11T09:11:38;20.90;;;16.98;;
40373;SDS011;26079;45.958;12.492;2024-01-11T09:14:08;20.85;;;17.20;;
40373;SDS011;26079;45.958;12.492;2024-01-11T09:16:37;26.20;;;19.52;;
40373;SDS011;26079;45.958;12.492;2024-01-11T09:19:04;37.63;;;27.25;;
40373;SDS011;26079;45.958;12.492;2024-01-11T09:21:30;27.33;;;19.63;;
40373;SDS011;26079;45.958;12.492;2024-01-11T09:23:56;25.27;;;17.27;;
40373;SDS011;26079;45.958;12.492;2024-01-11T09:26:21;27.73;;;16.90;;
40373;SDS011;26079;45.958;12.492;2024-01-11T09:28:47;24.85;;;16.73;;
40373;SDS011;26079;45.958;12.492;2024-01-11T09:31:13;34.00;;;19.08;;
40373;SDS011;26079;45.958;12.492;2024-01-11T09:33:39;27.42;;;16.40;;
40373;SDS011;26079;45.958;12.492;2024-01-11T09:36:05;25.23;;;16.05;;
40373;SDS011;26079;45.958;12.492;2024-01-11T09:38:32;25.52;;;16.73;;
40373;SDS011;26079;45.958;12.492;2024-01-11T09:41:07;31.20;;;18.88;;
40373;SDS011;26079;45.958;12.492;2024-01-11T09:43:36;28.60;;;15.45;;
40373;SDS011;26079;45.958;12.492;2024-01-11T09:46:05;23.10;;;16.55;;
40373;SDS011;26079;45.958;12.492;2024-01-11T09:48:35;34.83;;;17.58;;
40373;SDS011;26079;45.958;12.492;2024-01-11T09:51:02;30.02;;;21.17;;
40373;SDS011;26079;45.958;12.492;2024-01-11T09:53:31;24.70;;;19.00;;
40373;SDS011;26079;45.958;12.492;2024-01-11T09:55:58;27.38;;;17.35;;
40373;SDS011;26079;45.958;12.492;2024-01-11T09:58:25;26.92;;;16.58;;
40373;SDS011;26079;45.958;12.492;2024-01-11T10:00:55;19.80;;;14.30;;
40373;SDS011;26079;45.958;12.492;2024-01-11T10:03:24;19.92;;;14.32;;
40373;SDS011;26079;45.958;12.492;2024-01-11T10:05:57;18.52;;;14.73;;
40373;SDS011;26079;45.958;12.492;2024-01-11T10:08:24;18.10;;;12.65;;
40373;SDS011;26079;45.958;12.492;2024-01-11T10:10:51;23.58;;;13.02;;
40373;SDS011;26079;45.958;12.492;2024-01-11T10:13:17;18.45;;;13.95;;
40373;SDS011;26079;45.958;12.492;2024-01-11T10:15:43;18.52;;;12.40;;
40373;SDS011;26079;45.958;12.492;2024-01-11T10:18:09;18.50;;;12.48;;
40373;SDS011;26079;45.958;12.492;2024-01-11T10:20:35;23.75;;;12.50;;
40373;SDS011;26079;45.958;12.492;2024-01-11T10:23:02;17.27;;;12.07;;
40373;SDS011;26079;45.958;12.492;2024-01-11T10:25:28;19.90;;;12.98;;
40373;SDS011;26079;45.958;12.492;2024-01-11T10:27:54;17.77;;;12.30;;
40373;SDS011;26079;45.958;12.492;2024-01-11T10:30:19;45.10;;;28.92;;
40373;SDS011;26079;45.958;12.492;2024-01-11T10:32:47;51.63;;;31.80;;
40373;SDS011;26079;45.958;12.492;2024-01-11T10:35:13;47.63;;;29.20;;
40373;SDS011;26079;45.958;12.492;2024-01-11T10:37:41;22.77;;;17.45;;
40373;SDS011;26079;45.958;12.492;2024-01-11T10:40:09;18.10;;;14.27;;
40373;SDS011;26079;45.958;12.492;2024-01-11T10:42:49;17.00;;;14.82;;
40373;SDS011;26079;45.958;12.492;2024-01-11T10:45:19;16.90;;;14.15;;
40373;SDS011;26079;45.958;12.492;2024-01-11T10:47:55;14.98;;;11.30;;
40373;SDS011;26079;45.958;12.492;2024-01-11T10:50:26;13.02;;;10.40;;
40373;SDS011;26079;45.958;12.492;2024-01-11T10:55:58;16.30;;;10.68;;
40373;SDS011;26079;45.958;12.492;2024-01-11T10:58:25;14.20;;;11.10;;
40373;SDS011;26079;45.958;12.492;2024-01-11T11:00:52;15.43;;;10.25;;
40373;SDS011;26079;45.958;12.492;2024-01-11T11:03:25;13.60;;;11.05;;
40373;SDS011;26079;45.958;12.492;2024-01-11T11:05:54;12.00;;;10.68;;
40373;SDS011;26079;45.958;12.492;2024-01-11T11:08:22;12.80;;;10.68;;
40373;SDS011;26079;45.958;12.492;2024-01-11T11:10:55;18.92;;;9.98;;
40373;SDS011;26079;45.958;12.492;2024-01-11T11:13:22;14.73;;;9.02;;
40373;SDS011;26079;45.958;12.492;2024-01-11T11:15:48;11.60;;;9.85;;
40373;SDS011;26079;45.958;12.492;2024-01-11T11:18:14;13.32;;;9.90;;
40373;SDS011;26079;45.958;12.492;2024-01-11T11:20:41;13.50;;;10.70;;
40373;SDS011;26079;45.958;12.492;2024-01-11T11:23:08;15.68;;;10.65;;
40373;SDS011;26079;45.958;12.492;2024-01-11T11:25:38;13.20;;;9.70;;
40373;SDS011;26079;45.958;12.492;2024-01-11T11:28:05;12.95;;;10.48;;
40373;SDS011;26079;45.958;12.492;2024-01-11T11:30:32;12.48;;;10.35;;
40373;SDS011;26079;45.958;12.492;2024-01-11T11:33:15;10.75;;;8.95;;
40373;SDS011;26079;45.958;12.492;2024-01-11T11:35:48;13.45;;;9.80;;
40373;SDS011;26079;45.958;12.492;2024-01-11T11:38:20;15.05;;;10.30;;
40373;SDS011;26079;45.958;12.492;2024-01-11T11:40:48;13.25;;;10.60;;
40373;SDS011;26079;45.958;12.492;2024-01-11T11:43:16;11.68;;;10.10;;
40373;SDS011;26079;45.958;12.492;2024-01-11T11:45:43;12.73;;;10.75;;
40373;SDS011;26079;45.958;12.492;2024-01-11T11:51:05;10.95;;;8.45;;
40373;SDS011;26079;45.958;12.492;2024-01-11T11:53:36;8.25;;;7.40;;
40373;SDS011;26079;45.958;12.492;2024-01-11T11:56:02;9.80;;;7.90;;
40373;SDS011;26079;45.958;12.492;2024-01-11T11:58:28;10.98;;;8.88;;
40373;SDS011;26079;45.958;12.492;2024-01-11T12:00:55;16.30;;;11.60;;
40373;SDS011;26079;45.958;12.492;2024-01-11T12:03:32;12.18;;;9.23;;
40373;SDS011;26079;45.958;12.492;2024-01-11T12:06:02;10.50;;;8.85;;
40373;SDS011;26079;45.958;12.492;2024-01-11T12:08:29;9.60;;;8.52;;
40373;SDS011;26079;45.958;12.492;2024-01-11T12:10:55;12.57;;;10.57;;
40373;SDS011;26079;45.958;12.492;2024-01-11T12:13:21;14.65;;;10.77;;
40373;SDS011;26079;45.958;12.492;2024-01-11T12:15:47;11.50;;;10.30;;
40373;SDS011;26079;45.958;12.492;2024-01-11T12:18:13;12.00;;;9.60;;
40373;SDS011;26079;45.958;12.492;2024-01-11T12:20:39;12.75;;;10.40;;
40373;SDS011;26079;45.958;12.492;2024-01-11T12:23:04;13.27;;;11.38;;
40373;SDS011;26079;45.958;12.492;2024-01-11T12:25:31;21.70;;;15.10;;
40373;SDS011;26079;45.958;12.492;2024-01-11T12:27:57;16.17;;;12.98;;
40373;SDS011;26079;45.958;12.492;2024-01-11T12:30:23;13.98;;;10.05;;
40373;SDS011;26079;45.958;12.492;2024-01-11T12:32:52;13.60;;;9.68;;
40373;SDS011;26079;45.958;12.492;2024-01-11T12:35:19;14.32;;;8.95;;
40373;SDS011;26079;45.958;12.492;2024-01-11T12:38:19;10.82;;;8.88;;
40373;SDS011;26079;45.958;12.492;2024-01-11T12:40:38;10.68;;;9.13;;
40373;SDS011;26079;45.958;12.492;2024-01-11T12:43:05;12.65;;;10.85;;
40373;SDS011;26079;45.958;12.492;2024-01-11T12:45:32;11.13;;;9.35;;
40373;SDS011;26079;45.958;12.492;2024-01-11T12:47:59;10.52;;;8.63;;
40373;SDS011;26079;45.958;12.492;2024-01-11T12:50:29;11.52;;;8.07;;
40373;SDS011;26079;45.958;12.492;2024-01-11T12:53:08;11.05;;;9.10;;
40373;SDS011;26079;45.958;12.492;2024-01-11T12:55:46;14.18;;;8.98;;
40373;SDS011;26079;45.958;12.492;2024-01-11T12:58:28;9.93;;;8.05;;
40373;SDS011;26079;45.958;12.492;2024-01-11T13:00:53;18.05;;;13.02;;
40373;SDS011;26079;45.958;12.492;2024-01-11T13:03:19;23.02;;;15.98;;
40373;SDS011;26079;45.958;12.492;2024-01-11T13:05:45;29.02;;;22.88;;
40373;SDS011;26079;45.958;12.492;2024-01-11T13:08:12;22.10;;;15.70;;
40373;SDS011;26079;45.958;12.492;2024-01-11T13:10:37;11.65;;;9.50;;
40373;SDS011;26079;45.958;12.492;2024-01-11T13:13:03;12.10;;;8.32;;
40373;SDS011;26079;45.958;12.492;2024-01-11T13:15:30;13.25;;;8.50;;
40373;SDS011;26079;45.958;12.492;2024-01-11T13:18:00;10.68;;;8.05;;
40373;SDS011;26079;45.958;12.492;2024-01-11T13:20:27;10.65;;;8.20;;
40373;SDS011;26079;45.958;12.492;2024-01-11T13:23:11;9.27;;;8.32;;
40373;SDS011;26079;45.958;12.492;2024-01-11T13:25:38;10.35;;;7.28;;
40373;SDS011;26079;45.958;12.492;2024-01-11T13:28:04;10.88;;;8.20;;
40373;SDS011;26079;45.958;12.492;2024-01-11T13:30:31;10.73;;;7.95;;
40373;SDS011;26079;45.958;12.492;2024-01-11T13:32:57;10.55;;;7.80;;
40373;SDS011;26079;45.958;12.492;2024-01-11T13:35:24;10.40;;;7.68;;
40373;SDS011;26079;45.958;12.492;2024-01-11T13:37:49;9.25;;;6.80;;
40373;SDS011;26079;45.958;12.492;2024-01-11T13:40:15;12.20;;;6.32;;
40373;SDS011;26079;45.958;12.492;2024-01-11T13:42:41;11.23;;;6.90;;
40373;SDS011;26079;45.958;12.492;2024-01-11T13:45:07;13.15;;;7.60;;
40373;SDS011;26079;45.958;12.492;2024-01-11T13:47:34;11.85;;;8.07;;
40373;SDS011;26079;45.958;12.492;2024-01-11T13:50:00;10.13;;;9.02;;
40373;SDS011;26079;45.958;12.492;2024-01-11T13:52:26;9.40;;;7.60;;
40373;SDS011;26079;45.958;12.492;2024-01-11T13:54:52;9.48;;;7.30;;
40373;SDS011;26079;45.958;12.492;2024-01-11T13:57:17;12.25;;;8.02;;
40373;SDS011;26079;45.958;12.492;2024-01-11T13:59:43;8.95;;;5.90;;
40373;SDS011;26079;45.958;12.492;2024-01-11T14:02:09;7.50;;;6.68;;
40373;SDS011;26079;45.958;12.492;2024-01-11T14:04:34;8.88;;;6.57;;
40373;SDS011;26079;45.958;12.492;2024-01-11T14:07:00;12.00;;;9.10;;
40373;SDS011;26079;45.958;12.492;2024-01-11T14:09:28;12.43;;;7.20;;
40373;SDS011;26079;45.958;12.492;2024-01-11T14:11:54;12.57;;;8.70;;
40373;SDS011;26079;45.958;12.492;2024-01-11T14:14:20;11.00;;;9.10;;
40373;SDS011;26079;45.958;12.492;2024-01-11T14:16:45;11.68;;;9.13;;